sensor_id;sensor_type;location;lat;lon;timestamp;P1;durP1;ratioP1;P2;durP2;ratioP2
4676;SDS011;2352;48.180;11.478;2023-03-23T00:00:49;2.97;;;1.90;;
4676;SDS011;2352;48.180;11.478;2023-03-23T00:03:52;4.50;;;2.27;;
4676;SDS011;2352;48.180;11.478;2023-03-23T00:06:57;1.90;;;1.80;;
4676;SDS011;2352;48.180;11.478;2023-03-23T00:10:01;2.33;;;2.13;;
4676;SDS011;2352;48.180;11.478;2023-03-23T00:13:04;2.23;;;2.13;;
4676;SDS011;2352;48.180;11.478;2023-03-23T00:16:06;3.90;;;2.10;;
4676;SDS011;2352;48.180;11.478;2023-03-23T00:19:17;1.83;;;1.73;;
4676;SDS011;2352;48.180;11.478;2023-03-23T00:22:20;1.93;;;1.70;;
4676;SDS011;2352;48.180;11.478;2023-03-23T00:25:25;2.43;;;2.23;;
4676;SDS011;2352;48.180;11.478;2023-03-23T00:28:28;2.40;;;2.10;;
4676;SDS011;2352;48.180;11.478;2023-03-23T00:31:30;2.30;;;2.10;;
4676;SDS011;2352;48.180;11.478;2023-03-23T00:34:35;2.33;;;2.13;;
4676;SDS011;2352;48.180;11.478;2023-03-23T00:37:38;2.70;;;2.50;;
4676;SDS011;2352;48.180;11.478;2023-03-23T00:40:40;3.23;;;2.13;;
4676;SDS011;2352;48.180;11.478;2023-03-23T00:43:45;3.67;;;1.80;;
4676;SDS011;2352;48.180;11.478;2023-03-23T00:46:49;2.63;;;2.43;;
4676;SDS011;2352;48.180;11.478;2023-03-23T00:49:51;1.97;;;1.87;;
4676;SDS011;2352;48.180;11.478;2023-03-23T00:52:55;1.80;;;1.70;;
4676;SDS011;2352;48.180;11.478;2023-03-23T00:55:57;1.53;;;1.43;;
4676;SDS011;2352;48.180;11.478;2023-03-23T00:59:01;4.60;;;2.30;;
4676;SDS011;2352;48.180;11.478;2023-03-23T01:02:03;4.57;;;2.30;;
4676;SDS011;2352;48.180;11.478;2023-03-23T01:05:05;6.77;;;2.20;;
4676;SDS011;2352;48.180;11.478;2023-03-23T01:08:07;2.43;;;2.23;;
4676;SDS011;2352;48.180;11.478;2023-03-23T01:11:11;2.60;;;2.23;;
4676;SDS011;2352;48.180;11.478;2023-03-23T01:14:17;2.30;;;2.13;;
4676;SDS011;2352;48.180;11.478;2023-03-23T01:17:20;2.40;;;2.20;;
4676;SDS011;2352;48.180;11.478;2023-03-23T01:20:22;2.30;;;2.10;;
4676;SDS011;2352;48.180;11.478;2023-03-23T01:23:26;2.27;;;2.10;;
4676;SDS011;2352;48.180;11.478;2023-03-23T01:26:28;2.33;;;2.13;;
4676;SDS011;2352;48.180;11.478;2023-03-23T01:29:31;2.77;;;2.57;;
4676;SDS011;2352;48.180;11.478;2023-03-23T01:32:33;2.10;;;2.00;;
4676;SDS011;2352;48.180;11.478;2023-03-23T01:35:37;2.37;;;2.17;;
4676;SDS011;2352;48.180;11.478;2023-03-23T01:38:39;2.13;;;2.00;;
4676;SDS011;2352;48.180;11.478;2023-03-23T01:41:42;2.10;;;1.90;;
4676;SDS011;2352;48.180;11.478;2023-03-23T01:48:27;2.50;;;1.80;;
4676;SDS011;2352;48.180;11.478;2023-03-23T01:51:32;2.43;;;2.23;;
4676;SDS011;2352;48.180;11.478;2023-03-23T01:54:37;2.43;;;2.23;;
4676;SDS011;2352;48.180;11.478;2023-03-23T01:57:40;3.13;;;2.10;;
4676;SDS011;2352;48.180;11.478;2023-03-23T02:00:44;2.00;;;1.90;;
4676;SDS011;2352;48.180;11.478;2023-03-23T02:03:46;4.23;;;2.40;;
4676;SDS011;2352;48.180;11.478;2023-03-23T02:06:49;1.77;;;1.67;;
4676;SDS011;2352;48.180;11.478;2023-03-23T02:09:51;2.47;;;2.10;;
4676;SDS011;2352;48.180;11.478;2023-03-23T02:12:53;1.77;;;1.67;;
4676;SDS011;2352;48.180;11.478;2023-03-23T02:15:59;2.33;;;2.13;;
4676;SDS011;2352;48.180;11.478;2023-03-23T02:19:20;1.80;;;1.50;;
4676;SDS011;2352;48.180;11.478;2023-03-23T02:22:59;1.93;;;1.77;;
4676;SDS011;2352;48.180;11.478;2023-03-23T02:26:31;1.90;;;1.80;;
4676;SDS011;2352;48.180;11.478;2023-03-23T02:29:44;3.00;;;1.60;;
4676;SDS011;2352;48.180;11.478;2023-03-23T02:33:09;2.30;;;2.10;;
4676;SDS011;2352;48.180;11.478;2023-03-23T02:36:22;2.77;;;1.93;;
4676;SDS011;2352;48.180;11.478;2023-03-23T02:39:29;2.07;;;1.83;;
4676;SDS011;2352;48.180;11.478;2023-03-23T02:42:33;2.90;;;2.70;;
4676;SDS011;2352;48.180;11.478;2023-03-23T02:45:38;1.77;;;1.67;;
4676;SDS011;2352;48.180;11.478;2023-03-23T02:48:44;2.17;;;1.73;;
4676;SDS011;2352;48.180;11.478;2023-03-23T02:51:48;1.93;;;1.83;;
4676;SDS011;2352;48.180;11.478;2023-03-23T02:54:51;1.63;;;1.53;;
4676;SDS011;2352;48.180;11.478;2023-03-23T02:57:55;1.93;;;1.83;;
4676;SDS011;2352;48.180;11.478;2023-03-23T03:00:57;1.77;;;1.67;;
4676;SDS011;2352;48.180;11.478;2023-03-23T03:04:03;2.20;;;1.80;;
4676;SDS011;2352;48.180;11.478;2023-03-23T03:07:14;2.50;;;1.70;;
4676;SDS011;2352;48.180;11.478;2023-03-23T03:10:31;2.57;;;2.37;;
4676;SDS011;2352;48.180;11.478;2023-03-23T03:13:40;1.70;;;1.27;;
4676;SDS011;2352;48.180;11.478;2023-03-23T03:16:49;1.90;;;1.80;;
4676;SDS011;2352;48.180;11.478;2023-03-23T03:20:00;1.80;;;1.70;;
4676;SDS011;2352;48.180;11.478;2023-03-23T03:23:06;2.30;;;2.10;;
4676;SDS011;2352;48.180;11.478;2023-03-23T03:26:12;2.47;;;2.27;;
4676;SDS011;2352;48.180;11.478;2023-03-23T03:29:17;2.00;;;1.80;;
4676;SDS011;2352;48.180;11.478;2023-03-23T03:32:23;3.03;;;2.20;;
4676;SDS011;2352;48.180;11.478;2023-03-23T03:35:35;2.27;;;2.07;;
4676;SDS011;2352;48.180;11.478;2023-03-23T03:38:41;2.37;;;2.17;;
4676;SDS011;2352;48.180;11.478;2023-03-23T03:41:43;1.73;;;1.63;;
4676;SDS011;2352;48.180;11.478;2023-03-23T03:44:45;1.97;;;1.87;;
4676;SDS011;2352;48.180;11.478;2023-03-23T03:47:47;1.80;;;1.70;;
4676;SDS011;2352;48.180;11.478;2023-03-23T03:50:50;2.33;;;1.87;;
4676;SDS011;2352;48.180;11.478;2023-03-23T03:53:56;1.77;;;1.67;;
4676;SDS011;2352;48.180;11.478;2023-03-23T03:56:58;2.80;;;2.07;;
4676;SDS011;2352;48.180;11.478;2023-03-23T04:00:00;2.17;;;2.03;;
4676;SDS011;2352;48.180;11.478;2023-03-23T04:03:12;1.53;;;1.43;;
4676;SDS011;2352;48.180;11.478;2023-03-23T04:06:16;1.70;;;1.60;;
4676;SDS011;2352;48.180;11.478;2023-03-23T04:09:18;2.23;;;2.03;;
4676;SDS011;2352;48.180;11.478;2023-03-23T04:12:21;2.17;;;1.97;;
4676;SDS011;2352;48.180;11.478;2023-03-23T04:15:23;2.73;;;2.50;;
4676;SDS011;2352;48.180;11.478;2023-03-23T04:18:25;4.83;;;1.93;;
4676;SDS011;2352;48.180;11.478;2023-03-23T04:21:28;1.73;;;1.43;;
4676;SDS011;2352;48.180;11.478;2023-03-23T04:24:30;1.70;;;1.60;;
4676;SDS011;2352;48.180;11.478;2023-03-23T04:27:33;5.97;;;1.73;;
4676;SDS011;2352;48.180;11.478;2023-03-23T04:30:36;1.87;;;1.70;;
4676;SDS011;2352;48.180;11.478;2023-03-23T04:33:38;2.10;;;1.90;;
4676;SDS011;2352;48.180;11.478;2023-03-23T04:36:42;2.40;;;1.93;;
4676;SDS011;2352;48.180;11.478;2023-03-23T04:39:44;2.13;;;2.03;;
4676;SDS011;2352;48.180;11.478;2023-03-23T04:42:46;1.73;;;1.63;;
4676;SDS011;2352;48.180;11.478;2023-03-23T04:45:52;2.10;;;2.00;;
4676;SDS011;2352;48.180;11.478;2023-03-23T04:48:56;1.90;;;1.50;;
4676;SDS011;2352;48.180;11.478;2023-03-23T04:52:00;2.57;;;1.53;;
4676;SDS011;2352;48.180;11.478;2023-03-23T04:55:02;1.73;;;1.63;;
4676;SDS011;2352;48.180;11.478;2023-03-23T04:58:06;3.13;;;1.60;;
4676;SDS011;2352;48.180;11.478;2023-03-23T05:01:08;1.83;;;1.70;;
4676;SDS011;2352;48.180;11.478;2023-03-23T05:04:13;5.00;;;2.43;;
4676;SDS011;2352;48.180;11.478;2023-03-23T05:07:17;3.43;;;1.97;;
4676;SDS011;2352;48.180;11.478;2023-03-23T05:10:19;3.83;;;2.27;;
4676;SDS011;2352;48.180;11.478;2023-03-23T05:13:21;2.97;;;2.07;;
4676;SDS011;2352;48.180;11.478;2023-03-23T05:16:23;4.30;;;1.80;;
4676;SDS011;2352;48.180;11.478;2023-03-23T05:19:25;3.80;;;1.83;;
4676;SDS011;2352;48.180;11.478;2023-03-23T05:22:29;2.30;;;2.00;;
4676;SDS011;2352;48.180;11.478;2023-03-23T05:25:32;1.93;;;1.83;;
4676;SDS011;2352;48.180;11.478;2023-03-23T05:28:36;1.87;;;1.50;;
4676;SDS011;2352;48.180;11.478;2023-03-23T05:31:38;1.97;;;1.70;;
4676;SDS011;2352;48.180;11.478;2023-03-23T05:34:40;4.83;;;1.83;;
4676;SDS011;2352;48.180;11.478;2023-03-23T05:37:44;2.03;;;1.83;;
4676;SDS011;2352;48.180;11.478;2023-03-23T05:40:46;2.10;;;1.90;;
4676;SDS011;2352;48.180;11.478;2023-03-23T05:43:48;2.30;;;2.10;;
4676;SDS011;2352;48.180;11.478;2023-03-23T05:46:50;1.70;;;1.60;;
4676;SDS011;2352;48.180;11.478;2023-03-23T05:49:52;1.70;;;1.60;;
4676;SDS011;2352;48.180;11.478;2023-03-23T05:52:55;2.30;;;1.33;;
4676;SDS011;2352;48.180;11.478;2023-03-23T05:56:00;3.40;;;1.87;;
4676;SDS011;2352;48.180;11.478;2023-03-23T05:59:03;2.87;;;1.37;;
4676;SDS011;2352;48.180;11.478;2023-03-23T06:02:05;2.53;;;1.40;;
4676;SDS011;2352;48.180;11.478;2023-03-23T06:05:07;1.70;;;1.43;;
4676;SDS011;2352;48.180;11.478;2023-03-23T06:08:10;1.67;;;1.57;;
4676;SDS011;2352;48.180;11.478;2023-03-23T06:11:13;1.70;;;1.60;;
4676;SDS011;2352;48.180;11.478;2023-03-23T06:14:15;4.20;;;1.20;;
4676;SDS011;2352;48.180;11.478;2023-03-23T06:17:17;5.87;;;1.63;;
4676;SDS011;2352;48.180;11.478;2023-03-23T06:20:19;3.37;;;2.27;;
4676;SDS011;2352;48.180;11.478;2023-03-23T06:23:22;1.53;;;1.43;;
4676;SDS011;2352;48.180;11.478;2023-03-23T06:26:25;3.93;;;3.57;;
4676;SDS011;2352;48.180;11.478;2023-03-23T06:29:31;3.00;;;2.80;;
4676;SDS011;2352;48.180;11.478;2023-03-23T06:32:32;2.13;;;1.93;;
4676;SDS011;2352;48.180;11.478;2023-03-23T06:35:35;1.73;;;1.47;;
4676;SDS011;2352;48.180;11.478;2023-03-23T06:38:38;2.13;;;1.93;;
4676;SDS011;2352;48.180;11.478;2023-03-23T06:41:40;3.50;;;1.60;;
4676;SDS011;2352;48.180;11.478;2023-03-23T06:44:42;2.47;;;1.80;;
4676;SDS011;2352;48.180;11.478;2023-03-23T06:47:43;2.93;;;1.80;;
4676;SDS011;2352;48.180;11.478;2023-03-23T06:50:48;3.17;;;1.47;;
4676;SDS011;2352;48.180;11.478;2023-03-23T06:53:51;6.70;;;2.10;;
4676;SDS011;2352;48.180;11.478;2023-03-23T06:56:53;2.57;;;1.83;;
4676;SDS011;2352;48.180;11.478;2023-03-23T06:59:55;2.07;;;1.80;;
4676;SDS011;2352;48.180;11.478;2023-03-23T07:02:57;2.77;;;1.67;;
4676;SDS011;2352;48.180;11.478;2023-03-23T07:05:59;1.87;;;1.77;;
4676;SDS011;2352;48.180;11.478;2023-03-23T07:09:02;1.50;;;1.40;;
4676;SDS011;2352;48.180;11.478;2023-03-23T07:12:04;6.90;;;1.97;;
4676;SDS011;2352;48.180;11.478;2023-03-23T07:15:06;2.27;;;2.07;;
4676;SDS011;2352;48.180;11.478;2023-03-23T07:18:10;5.40;;;2.03;;
4676;SDS011;2352;48.180;11.478;2023-03-23T07:21:12;5.00;;;1.80;;
4676;SDS011;2352;48.180;11.478;2023-03-23T07:24:15;2.03;;;1.63;;
4676;SDS011;2352;48.180;11.478;2023-03-23T07:27:18;2.27;;;1.77;;
4676;SDS011;2352;48.180;11.478;2023-03-23T07:30:20;2.10;;;1.50;;
4676;SDS011;2352;48.180;11.478;2023-03-23T07:33:22;4.80;;;1.83;;
4676;SDS011;2352;48.180;11.478;2023-03-23T07:36:23;1.97;;;1.77;;
4676;SDS011;2352;48.180;11.478;2023-03-23T07:39:28;2.40;;;1.80;;
4676;SDS011;2352;48.180;11.478;2023-03-23T07:42:30;3.00;;;1.60;;
4676;SDS011;2352;48.180;11.478;2023-03-23T07:45:32;2.20;;;1.40;;
4676;SDS011;2352;48.180;11.478;2023-03-23T07:48:34;1.73;;;1.33;;
4676;SDS011;2352;48.180;11.478;2023-03-23T07:51:36;1.60;;;1.47;;
4676;SDS011;2352;48.180;11.478;2023-03-23T07:54:40;1.70;;;1.60;;
4676;SDS011;2352;48.180;11.478;2023-03-23T07:57:42;1.70;;;1.60;;
4676;SDS011;2352;48.180;11.478;2023-03-23T08:00:44;2.87;;;1.53;;
4676;SDS011;2352;48.180;11.478;2023-03-23T08:03:48;1.40;;;1.30;;
4676;SDS011;2352;48.180;11.478;2023-03-23T08:06:51;4.70;;;1.43;;
4676;SDS011;2352;48.180;11.478;2023-03-23T08:09:54;1.20;;;1.00;;
4676;SDS011;2352;48.180;11.478;2023-03-23T08:12:56;1.40;;;1.30;;
4676;SDS011;2352;48.180;11.478;2023-03-23T08:15:59;1.37;;;1.17;;
4676;SDS011;2352;48.180;11.478;2023-03-23T08:19:03;1.87;;;1.77;;
4676;SDS011;2352;48.180;11.478;2023-03-23T08:22:05;8.73;;;1.47;;
4676;SDS011;2352;48.180;11.478;2023-03-23T08:25:10;1.70;;;1.60;;
4676;SDS011;2352;48.180;11.478;2023-03-23T08:28:12;2.03;;;1.83;;
4676;SDS011;2352;48.180;11.478;2023-03-23T08:31:15;4.33;;;1.60;;
4676;SDS011;2352;48.180;11.478;2023-03-23T08:34:17;4.17;;;1.53;;
4676;SDS011;2352;48.180;11.478;2023-03-23T08:37:19;1.10;;;1.00;;
4676;SDS011;2352;48.180;11.478;2023-03-23T08:40:23;1.33;;;1.23;;
4676;SDS011;2352;48.180;11.478;2023-03-23T08:43:26;1.53;;;1.30;;
4676;SDS011;2352;48.180;11.478;2023-03-23T08:46:28;1.80;;;1.60;;
4676;SDS011;2352;48.180;11.478;2023-03-23T08:49:30;2.33;;;2.00;;
4676;SDS011;2352;48.180;11.478;2023-03-23T08:52:34;1.60;;;1.50;;
4676;SDS011;2352;48.180;11.478;2023-03-23T08:55:38;5.17;;;2.17;;
4676;SDS011;2352;48.180;11.478;2023-03-23T08:58:40;1.77;;;1.50;;
4676;SDS011;2352;48.180;11.478;2023-03-23T09:01:42;2.83;;;1.40;;
4676;SDS011;2352;48.180;11.478;2023-03-23T09:04:44;2.23;;;1.60;;
4676;SDS011;2352;48.180;11.478;2023-03-23T09:07:46;2.97;;;1.50;;
4676;SDS011;2352;48.180;11.478;2023-03-23T09:10:51;2.03;;;1.77;;
4676;SDS011;2352;48.180;11.478;2023-03-23T09:13:53;3.80;;;1.87;;
4676;SDS011;2352;48.180;11.478;2023-03-23T09:16:56;1.53;;;1.43;;
4676;SDS011;2352;48.180;11.478;2023-03-23T09:19:58;2.10;;;2.00;;
4676;SDS011;2352;48.180;11.478;2023-03-23T09:22:59;2.00;;;1.83;;
4676;SDS011;2352;48.180;11.478;2023-03-23T09:26:03;2.33;;;2.20;;
4676;SDS011;2352;48.180;11.478;2023-03-23T09:29:05;2.33;;;2.13;;
4676;SDS011;2352;48.180;11.478;2023-03-23T09:32:07;2.77;;;2.57;;
4676;SDS011;2352;48.180;11.478;2023-03-23T09:35:09;2.33;;;2.13;;
4676;SDS011;2352;48.180;11.478;2023-03-23T09:38:12;2.13;;;1.67;;
4676;SDS011;2352;48.180;11.478;2023-03-23T09:41:19;5.23;;;1.80;;
4676;SDS011;2352;48.180;11.478;2023-03-23T09:44:37;2.03;;;1.83;;
4676;SDS011;2352;48.180;11.478;2023-03-23T09:47:52;1.73;;;1.50;;
4676;SDS011;2352;48.180;11.478;2023-03-23T09:51:27;1.67;;;1.57;;
4676;SDS011;2352;48.180;11.478;2023-03-23T09:54:36;1.90;;;1.43;;
4676;SDS011;2352;48.180;11.478;2023-03-23T09:57:43;3.43;;;1.83;;
4676;SDS011;2352;48.180;11.478;2023-03-23T10:00:50;1.60;;;1.37;;
4676;SDS011;2352;48.180;11.478;2023-03-23T10:03:59;4.23;;;1.67;;
4676;SDS011;2352;48.180;11.478;2023-03-23T10:07:08;1.70;;;1.60;;
4676;SDS011;2352;48.180;11.478;2023-03-23T10:10:12;2.73;;;1.67;;
4676;SDS011;2352;48.180;11.478;2023-03-23T10:13:19;1.90;;;1.80;;
4676;SDS011;2352;48.180;11.478;2023-03-23T10:16:28;1.50;;;1.40;;
4676;SDS011;2352;48.180;11.478;2023-03-23T10:19:34;5.77;;;2.23;;
4676;SDS011;2352;48.180;11.478;2023-03-23T10:22:41;1.70;;;1.60;;
4676;SDS011;2352;48.180;11.478;2023-03-23T10:25:50;1.70;;;1.60;;
4676;SDS011;2352;48.180;11.478;2023-03-23T10:28:57;5.20;;;2.00;;
4676;SDS011;2352;48.180;11.478;2023-03-23T10:32:03;1.97;;;1.80;;
4676;SDS011;2352;48.180;11.478;2023-03-23T10:35:12;2.10;;;1.90;;
4676;SDS011;2352;48.180;11.478;2023-03-23T10:38:17;2.30;;;2.10;;
4676;SDS011;2352;48.180;11.478;2023-03-23T10:41:22;5.07;;;2.10;;
4676;SDS011;2352;48.180;11.478;2023-03-23T10:44:26;3.13;;;2.00;;
4676;SDS011;2352;48.180;11.478;2023-03-23T10:47:27;1.87;;;1.77;;
4676;SDS011;2352;48.180;11.478;2023-03-23T10:50:30;1.77;;;1.67;;
4676;SDS011;2352;48.180;11.478;2023-03-23T10:53:36;2.37;;;1.77;;
4676;SDS011;2352;48.180;11.478;2023-03-23T10:56:40;2.93;;;2.17;;
4676;SDS011;2352;48.180;11.478;2023-03-23T10:59:45;2.73;;;2.53;;
4676;SDS011;2352;48.180;11.478;2023-03-23T11:02:47;2.23;;;2.03;;
4676;SDS011;2352;48.180;11.478;2023-03-23T11:06:00;2.00;;;1.77;;
4676;SDS011;2352;48.180;11.478;2023-03-23T11:09:09;2.33;;;1.93;;
4676;SDS011;2352;48.180;11.478;2023-03-23T11:12:16;4.37;;;2.00;;
4676;SDS011;2352;48.180;11.478;2023-03-23T11:15:28;2.50;;;2.30;;
4676;SDS011;2352;48.180;11.478;2023-03-23T11:18:35;2.80;;;2.30;;
4676;SDS011;2352;48.180;11.478;2023-03-23T11:21:39;2.00;;;1.80;;
4676;SDS011;2352;48.180;11.478;2023-03-23T11:24:42;1.70;;;1.60;;
4676;SDS011;2352;48.180;11.478;2023-03-23T11:27:46;3.17;;;1.80;;
4676;SDS011;2352;48.180;11.478;2023-03-23T11:30:52;2.73;;;2.30;;
4676;SDS011;2352;48.180;11.478;2023-03-23T11:33:55;2.07;;;1.97;;
4676;SDS011;2352;48.180;11.478;2023-03-23T11:37:00;2.10;;;1.90;;
4676;SDS011;2352;48.180;11.478;2023-03-23T11:40:14;2.47;;;1.67;;
4676;SDS011;2352;48.180;11.478;2023-03-23T11:43:19;2.90;;;1.97;;
4676;SDS011;2352;48.180;11.478;2023-03-23T11:46:29;5.97;;;2.17;;
4676;SDS011;2352;48.180;11.478;2023-03-23T11:49:40;2.57;;;1.60;;
4676;SDS011;2352;48.180;11.478;2023-03-23T11:52:58;2.20;;;1.83;;
4676;SDS011;2352;48.180;11.478;2023-03-23T11:56:06;2.23;;;1.80;;
4676;SDS011;2352;48.180;11.478;2023-03-23T11:59:13;1.80;;;1.70;;
4676;SDS011;2352;48.180;11.478;2023-03-23T12:02:23;2.73;;;2.53;;
4676;SDS011;2352;48.180;11.478;2023-03-23T12:05:45;2.27;;;2.07;;
4676;SDS011;2352;48.180;11.478;2023-03-23T12:08:56;4.13;;;2.47;;
4676;SDS011;2352;48.180;11.478;2023-03-23T12:12:13;2.53;;;2.30;;
4676;SDS011;2352;48.180;11.478;2023-03-23T12:15:22;4.13;;;3.10;;
4676;SDS011;2352;48.180;11.478;2023-03-23T12:18:37;2.83;;;2.63;;
4676;SDS011;2352;48.180;11.478;2023-03-23T12:21:50;3.20;;;3.00;;
4676;SDS011;2352;48.180;11.478;2023-03-23T12:25:05;2.17;;;1.97;;
4676;SDS011;2352;48.180;11.478;2023-03-23T12:28:19;2.53;;;2.33;;
4676;SDS011;2352;48.180;11.478;2023-03-23T12:31:31;2.83;;;2.63;;
4676;SDS011;2352;48.180;11.478;2023-03-23T12:34:41;1.97;;;1.87;;
4676;SDS011;2352;48.180;11.478;2023-03-23T12:37:50;3.43;;;2.17;;
4676;SDS011;2352;48.180;11.478;2023-03-23T12:41:04;1.77;;;1.67;;
4676;SDS011;2352;48.180;11.478;2023-03-23T12:44:12;8.57;;;2.30;;
4676;SDS011;2352;48.180;11.478;2023-03-23T12:47:26;3.23;;;1.67;;
4676;SDS011;2352;48.180;11.478;2023-03-23T12:50:39;1.60;;;1.50;;
4676;SDS011;2352;48.180;11.478;2023-03-23T12:53:48;1.33;;;1.23;;
4676;SDS011;2352;48.180;11.478;2023-03-23T12:56:56;2.50;;;1.77;;
4676;SDS011;2352;48.180;11.478;2023-03-23T13:00:06;2.13;;;1.63;;
4676;SDS011;2352;48.180;11.478;2023-03-23T13:03:17;2.63;;;1.23;;
4676;SDS011;2352;48.180;11.478;2023-03-23T13:06:25;2.57;;;1.43;;
4676;SDS011;2352;48.180;11.478;2023-03-23T13:09:33;1.40;;;1.30;;
4676;SDS011;2352;48.180;11.478;2023-03-23T13:12:41;1.73;;;1.50;;
4676;SDS011;2352;48.180;11.478;2023-03-23T13:15:45;1.77;;;1.63;;
4676;SDS011;2352;48.180;11.478;2023-03-23T13:18:55;2.13;;;1.50;;
4676;SDS011;2352;48.180;11.478;2023-03-23T13:22:07;1.47;;;1.23;;
4676;SDS011;2352;48.180;11.478;2023-03-23T13:25:15;2.23;;;1.50;;
4676;SDS011;2352;48.180;11.478;2023-03-23T13:28:19;1.70;;;1.33;;
4676;SDS011;2352;48.180;11.478;2023-03-23T13:31:27;2.27;;;1.10;;
4676;SDS011;2352;48.180;11.478;2023-03-23T13:34:34;1.53;;;1.37;;
4676;SDS011;2352;48.180;11.478;2023-03-23T13:37:41;2.03;;;1.27;;
4676;SDS011;2352;48.180;11.478;2023-03-23T13:40:47;1.63;;;1.50;;
4676;SDS011;2352;48.180;11.478;2023-03-23T13:43:49;1.33;;;1.20;;
4676;SDS011;2352;48.180;11.478;2023-03-23T13:47:07;1.60;;;1.50;;
4676;SDS011;2352;48.180;11.478;2023-03-23T13:50:25;2.20;;;1.17;;
4676;SDS011;2352;48.180;11.478;2023-03-23T13:53:42;1.30;;;1.20;;
4676;SDS011;2352;48.180;11.478;2023-03-23T13:56:47;2.53;;;1.53;;
4676;SDS011;2352;48.180;11.478;2023-03-23T13:59:58;5.37;;;2.13;;
4676;SDS011;2352;48.180;11.478;2023-03-23T14:03:11;1.80;;;1.40;;
4676;SDS011;2352;48.180;11.478;2023-03-23T14:06:16;2.20;;;1.43;;
4676;SDS011;2352;48.180;11.478;2023-03-23T14:09:23;1.27;;;1.17;;
4676;SDS011;2352;48.180;11.478;2023-03-23T14:12:28;1.90;;;1.23;;
4676;SDS011;2352;48.180;11.478;2023-03-23T14:15:37;2.07;;;1.20;;
4676;SDS011;2352;48.180;11.478;2023-03-23T14:18:47;5.13;;;1.27;;
4676;SDS011;2352;48.180;11.478;2023-03-23T14:21:54;1.60;;;1.13;;
4676;SDS011;2352;48.180;11.478;2023-03-23T14:25:00;1.90;;;1.00;;
4676;SDS011;2352;48.180;11.478;2023-03-23T14:28:16;1.93;;;1.13;;
4676;SDS011;2352;48.180;11.478;2023-03-23T14:31:24;1.00;;;1.00;;
4676;SDS011;2352;48.180;11.478;2023-03-23T14:34:28;2.37;;;1.27;;
4676;SDS011;2352;48.180;11.478;2023-03-23T14:37:32;1.00;;;1.00;;
4676;SDS011;2352;48.180;11.478;2023-03-23T14:40:36;2.13;;;1.43;;
4676;SDS011;2352;48.180;11.478;2023-03-23T14:43:38;1.73;;;1.53;;
4676;SDS011;2352;48.180;11.478;2023-03-23T14:46:40;1.23;;;0.93;;
4676;SDS011;2352;48.180;11.478;2023-03-23T14:49:44;1.30;;;1.20;;
4676;SDS011;2352;48.180;11.478;2023-03-23T14:52:47;2.70;;;1.83;;
4676;SDS011;2352;48.180;11.478;2023-03-23T14:55:51;1.40;;;1.20;;
4676;SDS011;2352;48.180;11.478;2023-03-23T14:59:00;1.37;;;1.27;;
4676;SDS011;2352;48.180;11.478;2023-03-23T15:02:04;2.83;;;1.17;;
4676;SDS011;2352;48.180;11.478;2023-03-23T15:05:09;3.33;;;0.93;;
4676;SDS011;2352;48.180;11.478;2023-03-23T15:08:13;1.27;;;1.17;;
4676;SDS011;2352;48.180;11.478;2023-03-23T15:11:23;5.00;;;1.20;;
4676;SDS011;2352;48.180;11.478;2023-03-23T15:14:28;1.93;;;1.10;;
4676;SDS011;2352;48.180;11.478;2023-03-23T15:17:32;2.77;;;1.20;;
4676;SDS011;2352;48.180;11.478;2023-03-23T15:20:45;2.03;;;1.40;;
4676;SDS011;2352;48.180;11.478;2023-03-23T15:23:48;1.67;;;1.13;;
4676;SDS011;2352;48.180;11.478;2023-03-23T15:26:51;3.47;;;1.83;;
4676;SDS011;2352;48.180;11.478;2023-03-23T15:29:53;1.30;;;1.20;;
4676;SDS011;2352;48.180;11.478;2023-03-23T15:33:00;2.97;;;1.33;;
4676;SDS011;2352;48.180;11.478;2023-03-23T15:36:05;2.80;;;1.30;;
4676;SDS011;2352;48.180;11.478;2023-03-23T15:39:09;2.80;;;1.73;;
4676;SDS011;2352;48.180;11.478;2023-03-23T15:42:21;2.13;;;1.50;;
4676;SDS011;2352;48.180;11.478;2023-03-23T15:45:25;1.60;;;1.50;;
4676;SDS011;2352;48.180;11.478;2023-03-23T15:48:28;2.23;;;1.40;;
4676;SDS011;2352;48.180;11.478;2023-03-23T15:51:31;1.60;;;1.50;;
4676;SDS011;2352;48.180;11.478;2023-03-23T15:54:33;3.27;;;1.40;;
4676;SDS011;2352;48.180;11.478;2023-03-23T15:57:37;1.77;;;1.67;;
4676;SDS011;2352;48.180;11.478;2023-03-23T16:00:39;1.60;;;1.47;;
4676;SDS011;2352;48.180;11.478;2023-03-23T16:03:52;1.50;;;1.17;;
4676;SDS011;2352;48.180;11.478;2023-03-23T16:06:56;1.67;;;1.57;;
4676;SDS011;2352;48.180;11.478;2023-03-23T16:10:00;1.30;;;1.20;;
4676;SDS011;2352;48.180;11.478;2023-03-23T16:13:05;4.70;;;1.80;;
4676;SDS011;2352;48.180;11.478;2023-03-23T16:16:10;2.93;;;1.70;;
4676;SDS011;2352;48.180;11.478;2023-03-23T16:19:17;1.93;;;1.50;;
4676;SDS011;2352;48.180;11.478;2023-03-23T16:22:24;3.77;;;1.60;;
4676;SDS011;2352;48.180;11.478;2023-03-23T16:25:27;1.97;;;1.37;;
4676;SDS011;2352;48.180;11.478;2023-03-23T16:28:31;1.33;;;1.20;;
4676;SDS011;2352;48.180;11.478;2023-03-23T16:31:34;1.50;;;1.40;;
4676;SDS011;2352;48.180;11.478;2023-03-23T16:34:37;2.03;;;1.93;;
4676;SDS011;2352;48.180;11.478;2023-03-23T16:37:43;2.50;;;2.30;;
4676;SDS011;2352;48.180;11.478;2023-03-23T16:40:46;1.80;;;1.70;;
4676;SDS011;2352;48.180;11.478;2023-03-23T16:43:51;2.47;;;2.27;;
4676;SDS011;2352;48.180;11.478;2023-03-23T16:46:54;2.50;;;2.30;;
4676;SDS011;2352;48.180;11.478;2023-03-23T16:49:57;2.93;;;2.63;;
4676;SDS011;2352;48.180;11.478;2023-03-23T16:52:59;2.07;;;1.97;;
4676;SDS011;2352;48.180;11.478;2023-03-23T16:56:03;2.83;;;1.73;;
4676;SDS011;2352;48.180;11.478;2023-03-23T16:59:08;2.47;;;2.17;;
4676;SDS011;2352;48.180;11.478;2023-03-23T17:02:11;4.37;;;2.13;;
4676;SDS011;2352;48.180;11.478;2023-03-23T17:05:14;1.90;;;1.77;;
4676;SDS011;2352;48.180;11.478;2023-03-23T17:08:18;3.63;;;1.87;;
4676;SDS011;2352;48.180;11.478;2023-03-23T17:11:21;2.63;;;1.77;;
4676;SDS011;2352;48.180;11.478;2023-03-23T17:14:26;3.80;;;1.70;;
4676;SDS011;2352;48.180;11.478;2023-03-23T17:17:29;2.63;;;2.27;;
4676;SDS011;2352;48.180;11.478;2023-03-23T17:20:32;4.50;;;2.20;;
4676;SDS011;2352;48.180;11.478;2023-03-23T17:23:35;4.60;;;2.90;;
4676;SDS011;2352;48.180;11.478;2023-03-23T17:26:38;6.53;;;3.57;;
4676;SDS011;2352;48.180;11.478;2023-03-23T17:29:43;3.77;;;3.47;;
4676;SDS011;2352;48.180;11.478;2023-03-23T17:32:46;5.13;;;3.07;;
4676;SDS011;2352;48.180;11.478;2023-03-23T17:35:50;3.77;;;3.47;;
4676;SDS011;2352;48.180;11.478;2023-03-23T17:38:54;4.87;;;3.90;;
4676;SDS011;2352;48.180;11.478;2023-03-23T17:41:57;4.40;;;4.10;;
4676;SDS011;2352;48.180;11.478;2023-03-23T17:45:03;2.97;;;2.77;;
4676;SDS011;2352;48.180;11.478;2023-03-23T17:48:07;5.13;;;3.17;;
4676;SDS011;2352;48.180;11.478;2023-03-23T17:51:10;3.93;;;2.10;;
4676;SDS011;2352;48.180;11.478;2023-03-23T17:54:13;6.83;;;2.73;;
4676;SDS011;2352;48.180;11.478;2023-03-23T17:57:17;7.53;;;3.27;;
4676;SDS011;2352;48.180;11.478;2023-03-23T18:00:21;3.00;;;2.80;;
4676;SDS011;2352;48.180;11.478;2023-03-23T18:03:24;6.57;;;3.43;;
4676;SDS011;2352;48.180;11.478;2023-03-23T18:06:27;4.40;;;3.50;;
4676;SDS011;2352;48.180;11.478;2023-03-23T18:09:30;5.60;;;3.40;;
4676;SDS011;2352;48.180;11.478;2023-03-23T18:12:33;4.70;;;3.60;;
4676;SDS011;2352;48.180;11.478;2023-03-23T18:15:37;5.23;;;2.83;;
4676;SDS011;2352;48.180;11.478;2023-03-23T18:18:47;3.37;;;2.47;;
4676;SDS011;2352;48.180;11.478;2023-03-23T18:21:50;4.40;;;3.03;;
4676;SDS011;2352;48.180;11.478;2023-03-23T18:24:53;4.50;;;3.73;;
4676;SDS011;2352;48.180;11.478;2023-03-23T18:27:55;3.67;;;3.30;;
4676;SDS011;2352;48.180;11.478;2023-03-23T18:31:06;3.80;;;3.50;;
4676;SDS011;2352;48.180;11.478;2023-03-23T18:34:14;4.53;;;4.10;;
4676;SDS011;2352;48.180;11.478;2023-03-23T18:37:18;3.70;;;3.40;;
4676;SDS011;2352;48.180;11.478;2023-03-23T18:40:21;3.30;;;2.97;;
4676;SDS011;2352;48.180;11.478;2023-03-23T18:43:24;3.63;;;3.30;;
4676;SDS011;2352;48.180;11.478;2023-03-23T18:46:28;3.10;;;2.90;;
4676;SDS011;2352;48.180;11.478;2023-03-23T18:49:31;3.73;;;2.50;;
4676;SDS011;2352;48.180;11.478;2023-03-23T18:52:34;3.60;;;3.30;;
4676;SDS011;2352;48.180;11.478;2023-03-23T18:55:37;3.00;;;2.80;;